Dog Valley, California Weather observations

Data are for 10 minute period ending at time listed.
 Day   Time    Ave.   Ave.  Ave.  Vector   Max.   Total    Solar   
  of    of     Air    Rel.  Wind   Wind    Wind  Precip.   Rad.    
Year   Day     Temp.  Hum.  Speed  Dir.    Gust                    
2015   (PST)    F      %     mph   deg.    mph     in.     W/m2    
------------------------------------------------------------------- 
 115   21:00   35.0    79    0.0   192      4.0    1.44       0  
 115   22:00   35.0    82    1.0   281      6.0    1.44       0  
 115   23:00   35.0    77    1.0   271      6.0    1.44       0  
 116    0:00   33.0    83    0.0   119      6.0    1.44       0  
 116    1:00   30.0    88    0.0   283      4.0    1.44       0  
 116    2:00   28.0    93    0.0   298      3.0    1.44       0  
 116    3:00   28.0    94    0.0   152      2.0    1.44       0  
 116    4:00   29.0    95    0.0   316      2.0    1.44       0  
 116    5:00   30.0    93    0.0   320      0.0    1.44       0  
 116    6:00   30.0    95    0.0   293      1.0    1.44       9  
 116    7:00   34.0    91    0.0   135      3.0    1.44      51  
 116    8:00   39.0    63    3.0    45      7.0    1.44      88  
 116    9:00   45.0    50    2.0    63      8.0    1.44     545  
 116   10:00   47.0    43    3.0     5     12.0    1.44     743  
 116   11:00   49.0    35    3.0    40     12.0    1.44     892  
 116   12:00   52.0    32    3.0    39     11.0    1.44     951  
 116   13:00   55.0    29    2.0    40     10.0    1.44     959  
 116   14:00   56.0    32    3.0    39     10.0    1.44     904  
 116   15:00   57.0    32    2.0    66     11.0    1.44     774  
 116   16:00   57.0    31    3.0   351     11.0    1.44     649  
 116   17:00   56.0    32    2.0    55      9.0    1.44     361  
 116   18:00   51.0    36    1.0   360      8.0    1.44      65  
 116   19:00   42.0    65    1.0   285      6.0    1.44      14  
 116   20:00   37.0    75    0.0   291      2.0    1.44       0  

Return to Dog Valley, California graphs page.


Western Regional Climate Center,wrcc@dri.edu